sensor_id;sensor_type;location;lat;lon;timestamp;temperature;humidity
48768;DHT22;34933;40.968;14.538;2022-08-21T00:02:31;23.80;99.90
48768;DHT22;34933;40.968;14.538;2022-08-21T00:05:17;23.70;99.90
48768;DHT22;34933;40.968;14.538;2022-08-21T00:08:02;23.80;99.90
48768;DHT22;34933;40.968;14.538;2022-08-21T00:10:47;23.80;99.90
48768;DHT22;34933;40.968;14.538;2022-08-21T00:13:32;23.70;99.90
48768;DHT22;34933;40.968;14.538;2022-08-21T00:16:17;23.70;99.90
48768;DHT22;34933;40.968;14.538;2022-08-21T00:19:02;23.50;99.90
48768;DHT22;34933;40.968;14.538;2022-08-21T00:21:47;23.50;99.90
48768;DHT22;34933;40.968;14.538;2022-08-21T00:24:32;23.40;99.90
48768;DHT22;34933;40.968;14.538;2022-08-21T00:27:17;23.40;99.90
48768;DHT22;34933;40.968;14.538;2022-08-21T00:30:03;23.40;99.90
48768;DHT22;34933;40.968;14.538;2022-08-21T00:32:48;23.40;99.90
48768;DHT22;34933;40.968;14.538;2022-08-21T00:35:36;23.40;99.90
48768;DHT22;34933;40.968;14.538;2022-08-21T00:38:21;23.50;99.90
48768;DHT22;34933;40.968;14.538;2022-08-21T00:41:08;23.50;99.90
48768;DHT22;34933;40.968;14.538;2022-08-21T00:43:54;23.50;99.90
48768;DHT22;34933;40.968;14.538;2022-08-21T00:46:40;23.50;99.90
48768;DHT22;34933;40.968;14.538;2022-08-21T00:49:24;23.40;99.90
48768;DHT22;34933;40.968;14.538;2022-08-21T00:52:13;23.40;99.90
48768;DHT22;34933;40.968;14.538;2022-08-21T00:54:59;23.30;99.90
48768;DHT22;34933;40.968;14.538;2022-08-21T00:57:47;23.20;99.90
48768;DHT22;34933;40.968;14.538;2022-08-21T01:00:37;23.10;99.90
48768;DHT22;34933;40.968;14.538;2022-08-21T01:03:23;23.10;99.90
48768;DHT22;34933;40.968;14.538;2022-08-21T01:06:09;23.00;99.90
48768;DHT22;34933;40.968;14.538;2022-08-21T01:08:54;22.90;99.90
48768;DHT22;34933;40.968;14.538;2022-08-21T01:11:40;22.90;99.90
48768;DHT22;34933;40.968;14.538;2022-08-21T01:14:27;22.90;99.90
48768;DHT22;34933;40.968;14.538;2022-08-21T01:17:13;23.00;99.90
48768;DHT22;34933;40.968;14.538;2022-08-21T01:19:59;23.00;99.90
48768;DHT22;34933;40.968;14.538;2022-08-21T01:22:44;23.00;99.90
48768;DHT22;34933;40.968;14.538;2022-08-21T01:25:29;22.90;99.90
48768;DHT22;34933;40.968;14.538;2022-08-21T01:28:14;22.90;99.90
48768;DHT22;34933;40.968;14.538;2022-08-21T01:31:01;22.90;99.90
48768;DHT22;34933;40.968;14.538;2022-08-21T01:33:45;22.80;99.90
48768;DHT22;34933;40.968;14.538;2022-08-21T01:36:30;22.90;99.90
48768;DHT22;34933;40.968;14.538;2022-08-21T01:39:15;22.80;99.90
48768;DHT22;34933;40.968;14.538;2022-08-21T01:42:00;22.90;99.90
48768;DHT22;34933;40.968;14.538;2022-08-21T01:44:44;22.90;99.90
48768;DHT22;34933;40.968;14.538;2022-08-21T01:47:29;22.90;99.90
48768;DHT22;34933;40.968;14.538;2022-08-21T01:50:16;22.90;99.90
48768;DHT22;34933;40.968;14.538;2022-08-21T01:53:01;22.90;99.90
48768;DHT22;34933;40.968;14.538;2022-08-21T01:55:46;22.90;99.90
48768;DHT22;34933;40.968;14.538;2022-08-21T01:58:30;22.90;99.90
48768;DHT22;34933;40.968;14.538;2022-08-21T02:01:15;22.80;99.90
48768;DHT22;34933;40.968;14.538;2022-08-21T02:04:00;22.80;99.90
48768;DHT22;34933;40.968;14.538;2022-08-21T02:06:45;22.80;99.90
48768;DHT22;34933;40.968;14.538;2022-08-21T02:09:30;22.80;99.90
48768;DHT22;34933;40.968;14.538;2022-08-21T02:12:14;22.80;99.90
48768;DHT22;34933;40.968;14.538;2022-08-21T02:14:59;22.80;99.90
48768;DHT22;34933;40.968;14.538;2022-08-21T02:17:53;22.70;99.90
48768;DHT22;34933;40.968;14.538;2022-08-21T02:20:44;22.70;99.90
48768;DHT22;34933;40.968;14.538;2022-08-21T02:23:29;22.60;99.90
48768;DHT22;34933;40.968;14.538;2022-08-21T02:26:14;22.60;99.90
48768;DHT22;34933;40.968;14.538;2022-08-21T02:28:59;22.60;99.90
48768;DHT22;34933;40.968;14.538;2022-08-21T02:31:43;22.60;99.90
48768;DHT22;34933;40.968;14.538;2022-08-21T02:34:28;22.60;99.90
48768;DHT22;34933;40.968;14.538;2022-08-21T02:37:12;22.50;99.90
48768;DHT22;34933;40.968;14.538;2022-08-21T02:39:59;22.50;99.90
48768;DHT22;34933;40.968;14.538;2022-08-21T02:42:44;22.50;99.90
48768;DHT22;34933;40.968;14.538;2022-08-21T02:45:29;22.50;99.90
48768;DHT22;34933;40.968;14.538;2022-08-21T02:48:18;22.50;99.90
48768;DHT22;34933;40.968;14.538;2022-08-21T02:51:12;22.50;99.90
48768;DHT22;34933;40.968;14.538;2022-08-21T02:53:57;22.60;99.90
48768;DHT22;34933;40.968;14.538;2022-08-21T02:56:42;22.70;99.90
48768;DHT22;34933;40.968;14.538;2022-08-21T02:59:27;22.80;99.90
48768;DHT22;34933;40.968;14.538;2022-08-21T03:02:11;22.80;99.90
48768;DHT22;34933;40.968;14.538;2022-08-21T03:04:56;22.80;99.90
48768;DHT22;34933;40.968;14.538;2022-08-21T03:07:43;22.70;99.90
48768;DHT22;34933;40.968;14.538;2022-08-21T03:10:29;22.70;99.90
48768;DHT22;34933;40.968;14.538;2022-08-21T03:13:16;22.80;99.90
48768;DHT22;34933;40.968;14.538;2022-08-21T03:16:01;22.80;99.90
48768;DHT22;34933;40.968;14.538;2022-08-21T03:18:45;22.70;99.90
48768;DHT22;34933;40.968;14.538;2022-08-21T03:21:30;22.60;99.90
48768;DHT22;34933;40.968;14.538;2022-08-21T03:24:15;22.60;99.90
48768;DHT22;34933;40.968;14.538;2022-08-21T03:26:59;22.60;99.90
48768;DHT22;34933;40.968;14.538;2022-08-21T03:29:44;22.50;99.90
48768;DHT22;34933;40.968;14.538;2022-08-21T03:32:29;22.50;99.90
48768;DHT22;34933;40.968;14.538;2022-08-21T03:35:15;22.50;99.90
48768;DHT22;34933;40.968;14.538;2022-08-21T03:38:00;22.60;99.90
48768;DHT22;34933;40.968;14.538;2022-08-21T03:40:45;22.60;99.90
48768;DHT22;34933;40.968;14.538;2022-08-21T03:43:30;22.60;99.90
48768;DHT22;34933;40.968;14.538;2022-08-21T03:46:15;22.70;99.90
48768;DHT22;34933;40.968;14.538;2022-08-21T03:49:00;22.70;99.90
48768;DHT22;34933;40.968;14.538;2022-08-21T03:51:44;22.70;99.90
48768;DHT22;34933;40.968;14.538;2022-08-21T03:54:29;22.60;99.90
48768;DHT22;34933;40.968;14.538;2022-08-21T03:57:14;22.70;99.90
48768;DHT22;34933;40.968;14.538;2022-08-21T03:59:58;22.60;99.90
48768;DHT22;34933;40.968;14.538;2022-08-21T04:02:43;22.70;99.90
48768;DHT22;34933;40.968;14.538;2022-08-21T04:05:28;22.70;99.90
48768;DHT22;34933;40.968;14.538;2022-08-21T04:08:16;22.70;99.90
48768;DHT22;34933;40.968;14.538;2022-08-21T04:11:04;22.60;99.90
48768;DHT22;34933;40.968;14.538;2022-08-21T04:13:49;22.60;99.90
48768;DHT22;34933;40.968;14.538;2022-08-21T04:16:34;22.50;99.90
48768;DHT22;34933;40.968;14.538;2022-08-21T04:19:18;22.50;99.90
48768;DHT22;34933;40.968;14.538;2022-08-21T04:22:03;22.40;99.90
48768;DHT22;34933;40.968;14.538;2022-08-21T04:24:48;22.40;99.90
48768;DHT22;34933;40.968;14.538;2022-08-21T04:27:32;22.40;99.90
48768;DHT22;34933;40.968;14.538;2022-08-21T04:30:18;22.40;99.90
48768;DHT22;34933;40.968;14.538;2022-08-21T04:33:03;22.50;99.90
48768;DHT22;34933;40.968;14.538;2022-08-21T04:35:49;22.50;99.90
48768;DHT22;34933;40.968;14.538;2022-08-21T04:38:33;22.40;99.90
48768;DHT22;34933;40.968;14.538;2022-08-21T04:41:18;22.50;99.90
48768;DHT22;34933;40.968;14.538;2022-08-21T04:44:03;22.50;99.90
48768;DHT22;34933;40.968;14.538;2022-08-21T04:46:47;22.50;99.90
48768;DHT22;34933;40.968;14.538;2022-08-21T04:49:32;22.60;99.90
48768;DHT22;34933;40.968;14.538;2022-08-21T04:52:20;22.60;99.90
48768;DHT22;34933;40.968;14.538;2022-08-21T04:55:06;22.60;99.90
48768;DHT22;34933;40.968;14.538;2022-08-21T04:57:52;22.60;99.90
48768;DHT22;34933;40.968;14.538;2022-08-21T05:00:37;22.60;99.90
48768;DHT22;34933;40.968;14.538;2022-08-21T05:03:22;22.70;99.90
48768;DHT22;34933;40.968;14.538;2022-08-21T05:06:09;22.70;99.90
48768;DHT22;34933;40.968;14.538;2022-08-21T05:08:55;22.70;99.90
48768;DHT22;34933;40.968;14.538;2022-08-21T05:11:40;22.70;99.90
48768;DHT22;34933;40.968;14.538;2022-08-21T05:14:25;22.80;99.90
48768;DHT22;34933;40.968;14.538;2022-08-21T05:17:11;22.90;99.90
48768;DHT22;34933;40.968;14.538;2022-08-21T05:19:55;23.00;99.90
48768;DHT22;34933;40.968;14.538;2022-08-21T05:22:40;23.00;99.90
48768;DHT22;34933;40.968;14.538;2022-08-21T05:25:25;23.10;99.90
48768;DHT22;34933;40.968;14.538;2022-08-21T05:28:10;23.20;99.90
48768;DHT22;34933;40.968;14.538;2022-08-21T05:30:54;23.40;99.90
48768;DHT22;34933;40.968;14.538;2022-08-21T05:33:39;23.60;99.90
48768;DHT22;34933;40.968;14.538;2022-08-21T05:36:23;23.70;99.90
48768;DHT22;34933;40.968;14.538;2022-08-21T05:39:08;23.80;99.90
48768;DHT22;34933;40.968;14.538;2022-08-21T05:41:53;24.00;99.90
48768;DHT22;34933;40.968;14.538;2022-08-21T05:44:38;24.10;99.90
48768;DHT22;34933;40.968;14.538;2022-08-21T05:47:22;24.20;99.90
48768;DHT22;34933;40.968;14.538;2022-08-21T05:50:08;24.30;99.90
48768;DHT22;34933;40.968;14.538;2022-08-21T05:52:53;24.40;99.90
48768;DHT22;34933;40.968;14.538;2022-08-21T05:55:38;24.50;99.90
48768;DHT22;34933;40.968;14.538;2022-08-21T05:58:23;24.50;99.90
48768;DHT22;34933;40.968;14.538;2022-08-21T06:01:08;24.60;99.90
48768;DHT22;34933;40.968;14.538;2022-08-21T06:03:53;24.70;99.90
48768;DHT22;34933;40.968;14.538;2022-08-21T06:06:37;24.80;99.90
48768;DHT22;34933;40.968;14.538;2022-08-21T06:09:22;24.90;99.90
48768;DHT22;34933;40.968;14.538;2022-08-21T06:12:09;25.00;99.90
48768;DHT22;34933;40.968;14.538;2022-08-21T06:14:54;25.10;99.90
48768;DHT22;34933;40.968;14.538;2022-08-21T06:17:38;25.20;99.90
48768;DHT22;34933;40.968;14.538;2022-08-21T06:20:23;25.30;99.90
48768;DHT22;34933;40.968;14.538;2022-08-21T06:23:08;25.40;99.90
48768;DHT22;34933;40.968;14.538;2022-08-21T06:25:53;25.50;99.90
48768;DHT22;34933;40.968;14.538;2022-08-21T06:28:37;25.60;99.90
48768;DHT22;34933;40.968;14.538;2022-08-21T06:31:25;25.80;99.90
48768;DHT22;34933;40.968;14.538;2022-08-21T06:34:10;25.90;99.90
48768;DHT22;34933;40.968;14.538;2022-08-21T06:36:54;26.10;99.90
48768;DHT22;34933;40.968;14.538;2022-08-21T06:39:39;26.20;99.90
48768;DHT22;34933;40.968;14.538;2022-08-21T06:42:24;26.20;99.90
48768;DHT22;34933;40.968;14.538;2022-08-21T06:45:10;26.30;99.90
48768;DHT22;34933;40.968;14.538;2022-08-21T06:47:54;26.30;99.90
48768;DHT22;34933;40.968;14.538;2022-08-21T06:50:39;26.40;99.90
48768;DHT22;34933;40.968;14.538;2022-08-21T06:53:24;26.40;99.90
48768;DHT22;34933;40.968;14.538;2022-08-21T06:56:08;26.50;99.90
48768;DHT22;34933;40.968;14.538;2022-08-21T06:58:53;26.60;99.90
48768;DHT22;34933;40.968;14.538;2022-08-21T07:01:38;26.60;99.90
48768;DHT22;34933;40.968;14.538;2022-08-21T07:04:23;26.70;99.90
48768;DHT22;34933;40.968;14.538;2022-08-21T07:07:07;26.80;99.90
48768;DHT22;34933;40.968;14.538;2022-08-21T07:09:52;26.80;99.90
48768;DHT22;34933;40.968;14.538;2022-08-21T07:12:36;27.00;99.90
48768;DHT22;34933;40.968;14.538;2022-08-21T07:15:21;27.10;99.90
48768;DHT22;34933;40.968;14.538;2022-08-21T07:18:06;27.20;99.90
48768;DHT22;34933;40.968;14.538;2022-08-21T07:20:51;27.20;99.90
48768;DHT22;34933;40.968;14.538;2022-08-21T07:23:45;27.10;99.90
48768;DHT22;34933;40.968;14.538;2022-08-21T07:26:29;27.20;99.90
48768;DHT22;34933;40.968;14.538;2022-08-21T07:29:14;27.40;99.90
48768;DHT22;34933;40.968;14.538;2022-08-21T07:31:58;27.60;99.90
48768;DHT22;34933;40.968;14.538;2022-08-21T07:34:43;27.60;99.90
48768;DHT22;34933;40.968;14.538;2022-08-21T07:37:28;27.60;99.90
48768;DHT22;34933;40.968;14.538;2022-08-21T07:40:13;27.60;99.90
48768;DHT22;34933;40.968;14.538;2022-08-21T07:42:59;27.40;99.90
48768;DHT22;34933;40.968;14.538;2022-08-21T07:45:45;27.50;99.90
48768;DHT22;34933;40.968;14.538;2022-08-21T07:48:29;27.60;99.90
48768;DHT22;34933;40.968;14.538;2022-08-21T07:51:16;27.80;99.90
48768;DHT22;34933;40.968;14.538;2022-08-21T07:54:01;27.80;99.90
48768;DHT22;34933;40.968;14.538;2022-08-21T07:56:45;27.90;99.90
48768;DHT22;34933;40.968;14.538;2022-08-21T07:59:30;28.10;99.90
48768;DHT22;34933;40.968;14.538;2022-08-21T08:02:26;28.20;99.90
48768;DHT22;34933;40.968;14.538;2022-08-21T08:05:11;28.30;99.90
48768;DHT22;34933;40.968;14.538;2022-08-21T08:07:56;28.40;99.90
48768;DHT22;34933;40.968;14.538;2022-08-21T08:10:41;28.30;99.90
48768;DHT22;34933;40.968;14.538;2022-08-21T08:13:26;28.40;99.90
48768;DHT22;34933;40.968;14.538;2022-08-21T08:16:11;28.30;99.90
48768;DHT22;34933;40.968;14.538;2022-08-21T08:18:55;28.30;99.90
48768;DHT22;34933;40.968;14.538;2022-08-21T08:21:40;28.40;99.90
48768;DHT22;34933;40.968;14.538;2022-08-21T08:24:25;28.50;99.90
48768;DHT22;34933;40.968;14.538;2022-08-21T08:27:09;28.50;99.90
48768;DHT22;34933;40.968;14.538;2022-08-21T08:29:54;28.60;99.90
48768;DHT22;34933;40.968;14.538;2022-08-21T08:32:40;28.80;99.90
48768;DHT22;34933;40.968;14.538;2022-08-21T08:35:25;28.90;99.90
48768;DHT22;34933;40.968;14.538;2022-08-21T08:38:10;29.00;99.90
48768;DHT22;34933;40.968;14.538;2022-08-21T08:44:01;29.20;99.90
48768;DHT22;34933;40.968;14.538;2022-08-21T08:46:48;29.30;99.90
48768;DHT22;34933;40.968;14.538;2022-08-21T08:49:47;29.40;99.90
48768;DHT22;34933;40.968;14.538;2022-08-21T08:52:36;29.50;99.90
48768;DHT22;34933;40.968;14.538;2022-08-21T08:55:28;29.50;99.90
48768;DHT22;34933;40.968;14.538;2022-08-21T08:58:31;29.20;99.90
48768;DHT22;34933;40.968;14.538;2022-08-21T09:01:17;29.10;99.90
48768;DHT22;34933;40.968;14.538;2022-08-21T09:04:02;29.30;99.90
48768;DHT22;34933;40.968;14.538;2022-08-21T09:06:59;29.30;99.90
48768;DHT22;34933;40.968;14.538;2022-08-21T09:22:12;29.90;99.90
48768;DHT22;34933;40.968;14.538;2022-08-21T09:25:21;30.00;99.90
48768;DHT22;34933;40.968;14.538;2022-08-21T09:28:09;30.10;99.90
48768;DHT22;34933;40.968;14.538;2022-08-21T09:30:55;30.30;99.90
48768;DHT22;34933;40.968;14.538;2022-08-21T09:33:41;30.50;99.90
48768;DHT22;34933;40.968;14.538;2022-08-21T09:39:39;30.50;99.90
48768;DHT22;34933;40.968;14.538;2022-08-21T09:42:27;30.50;99.90
48768;DHT22;34933;40.968;14.538;2022-08-21T09:45:17;30.40;99.90
48768;DHT22;34933;40.968;14.538;2022-08-21T09:48:22;30.60;99.90
48768;DHT22;34933;40.968;14.538;2022-08-21T09:51:11;30.80;99.90
48768;DHT22;34933;40.968;14.538;2022-08-21T09:56:59;31.10;99.90
48768;DHT22;34933;40.968;14.538;2022-08-21T10:03:21;31.30;99.90
48768;DHT22;34933;40.968;14.538;2022-08-21T10:06:07;31.40;99.90
48768;DHT22;34933;40.968;14.538;2022-08-21T10:09:09;31.60;99.90
48768;DHT22;34933;40.968;14.538;2022-08-21T10:12:13;31.60;99.90
48768;DHT22;34933;40.968;14.538;2022-08-21T10:15:46;31.60;99.90
48768;DHT22;34933;40.968;14.538;2022-08-21T10:18:42;31.60;99.90
48768;DHT22;34933;40.968;14.538;2022-08-21T10:28:21;31.70;99.90
48768;DHT22;34933;40.968;14.538;2022-08-21T10:31:10;31.90;99.90
48768;DHT22;34933;40.968;14.538;2022-08-21T10:34:07;32.10;99.90
48768;DHT22;34933;40.968;14.538;2022-08-21T10:37:17;32.10;99.90
48768;DHT22;34933;40.968;14.538;2022-08-21T10:40:29;32.60;99.70
48768;DHT22;34933;40.968;14.538;2022-08-21T10:43:28;33.00;98.80
48768;DHT22;34933;40.968;14.538;2022-08-21T10:46:46;33.20;98.30
48768;DHT22;34933;40.968;14.538;2022-08-21T10:56:15;33.40;97.30
48768;DHT22;34933;40.968;14.538;2022-08-21T10:59:26;33.50;97.30
48768;DHT22;34933;40.968;14.538;2022-08-21T11:08:13;34.30;95.90
48768;DHT22;34933;40.968;14.538;2022-08-21T11:17:43;34.20;95.70
48768;DHT22;34933;40.968;14.538;2022-08-21T11:23:52;34.00;95.80
48768;DHT22;34933;40.968;14.538;2022-08-21T11:32:44;33.60;96.10
48768;DHT22;34933;40.968;14.538;2022-08-21T11:35:40;33.60;95.60
48768;DHT22;34933;40.968;14.538;2022-08-21T11:38:35;33.80;94.80
48768;DHT22;34933;40.968;14.538;2022-08-21T11:41:30;33.90;95.00
48768;DHT22;34933;40.968;14.538;2022-08-21T11:50:18;34.80;93.50
48768;DHT22;34933;40.968;14.538;2022-08-21T11:53:29;34.60;93.70
48768;DHT22;34933;40.968;14.538;2022-08-21T11:56:20;34.30;93.70
48768;DHT22;34933;40.968;14.538;2022-08-21T11:59:11;34.60;93.10
48768;DHT22;34933;40.968;14.538;2022-08-21T12:01:58;35.30;92.70
48768;DHT22;34933;40.968;14.538;2022-08-21T12:04:53;35.40;92.40
48768;DHT22;34933;40.968;14.538;2022-08-21T12:07:44;35.40;92.30
48768;DHT22;34933;40.968;14.538;2022-08-21T12:10:35;35.60;92.30
48768;DHT22;34933;40.968;14.538;2022-08-21T12:13:28;35.80;92.20
48768;DHT22;34933;40.968;14.538;2022-08-21T12:16:15;36.60;91.60
48768;DHT22;34933;40.968;14.538;2022-08-21T12:24:49;36.00;91.30
48768;DHT22;34933;40.968;14.538;2022-08-21T12:28:06;36.50;90.60
48768;DHT22;34933;40.968;14.538;2022-08-21T12:30:51;37.10;90.40
48768;DHT22;34933;40.968;14.538;2022-08-21T12:33:39;37.70;88.50
48768;DHT22;34933;40.968;14.538;2022-08-21T12:36:48;37.70;88.30
48768;DHT22;34933;40.968;14.538;2022-08-21T12:39:36;37.40;87.90
48768;DHT22;34933;40.968;14.538;2022-08-21T12:42:33;37.10;88.90
48768;DHT22;34933;40.968;14.538;2022-08-21T12:45:28;37.70;87.50
48768;DHT22;34933;40.968;14.538;2022-08-21T12:51:26;37.70;89.70
48768;DHT22;34933;40.968;14.538;2022-08-21T12:54:25;36.50;91.30
48768;DHT22;34933;40.968;14.538;2022-08-21T12:57:23;35.70;92.20
48768;DHT22;34933;40.968;14.538;2022-08-21T13:00:11;35.60;92.30
48768;DHT22;34933;40.968;14.538;2022-08-21T13:02:57;36.00;92.70
48768;DHT22;34933;40.968;14.538;2022-08-21T13:05:41;34.50;93.60
48768;DHT22;34933;40.968;14.538;2022-08-21T13:08:27;33.60;92.90
48768;DHT22;34933;40.968;14.538;2022-08-21T13:11:16;32.80;93.30
48768;DHT22;34933;40.968;14.538;2022-08-21T13:14:04;32.40;91.90
48768;DHT22;34933;40.968;14.538;2022-08-21T13:16:57;31.90;92.10
48768;DHT22;34933;40.968;14.538;2022-08-21T13:19:41;30.30;93.40
48768;DHT22;34933;40.968;14.538;2022-08-21T13:22:27;28.90;97.10
48768;DHT22;34933;40.968;14.538;2022-08-21T13:25:17;27.20;99.90
48768;DHT22;34933;40.968;14.538;2022-08-21T13:28:08;24.70;99.90
48768;DHT22;34933;40.968;14.538;2022-08-21T13:30:54;22.40;99.90
48768;DHT22;34933;40.968;14.538;2022-08-21T13:33:41;21.40;99.90
48768;DHT22;34933;40.968;14.538;2022-08-21T13:36:30;20.80;99.90
48768;DHT22;34933;40.968;14.538;2022-08-21T13:39:18;20.70;99.90
48768;DHT22;34933;40.968;14.538;2022-08-21T13:42:04;20.40;99.90
48768;DHT22;34933;40.968;14.538;2022-08-21T13:44:53;20.40;99.90
48768;DHT22;34933;40.968;14.538;2022-08-21T13:47:38;20.60;99.90
48768;DHT22;34933;40.968;14.538;2022-08-21T13:50:24;20.30;99.90
48768;DHT22;34933;40.968;14.538;2022-08-21T13:56:32;20.60;99.90
48768;DHT22;34933;40.968;14.538;2022-08-21T13:59:30;20.70;99.90
48768;DHT22;34933;40.968;14.538;2022-08-21T14:05:02;21.00;99.90
48768;DHT22;34933;40.968;14.538;2022-08-21T14:07:50;21.20;99.90
48768;DHT22;34933;40.968;14.538;2022-08-21T14:10:41;21.60;99.90
48768;DHT22;34933;40.968;14.538;2022-08-21T14:16:25;22.50;99.90
48768;DHT22;34933;40.968;14.538;2022-08-21T14:19:35;23.10;99.90
48768;DHT22;34933;40.968;14.538;2022-08-21T14:25:29;23.90;99.90
48768;DHT22;34933;40.968;14.538;2022-08-21T14:28:38;24.50;99.90
48768;DHT22;34933;40.968;14.538;2022-08-21T14:31:29;24.70;99.90
48768;DHT22;34933;40.968;14.538;2022-08-21T14:34:14;24.70;99.90
48768;DHT22;34933;40.968;14.538;2022-08-21T14:37:01;24.80;99.90
48768;DHT22;34933;40.968;14.538;2022-08-21T14:39:45;25.40;99.90
48768;DHT22;34933;40.968;14.538;2022-08-21T14:42:30;26.60;99.90
48768;DHT22;34933;40.968;14.538;2022-08-21T14:45:25;28.40;99.90
48768;DHT22;34933;40.968;14.538;2022-08-21T14:48:11;29.00;99.90
48768;DHT22;34933;40.968;14.538;2022-08-21T14:50:55;29.60;99.90
48768;DHT22;34933;40.968;14.538;2022-08-21T14:53:41;30.10;99.90
48768;DHT22;34933;40.968;14.538;2022-08-21T14:56:25;31.80;99.90
48768;DHT22;34933;40.968;14.538;2022-08-21T14:59:10;32.70;99.90
48768;DHT22;34933;40.968;14.538;2022-08-21T15:01:56;33.90;99.90
48768;DHT22;34933;40.968;14.538;2022-08-21T15:04:40;34.90;99.90
48768;DHT22;34933;40.968;14.538;2022-08-21T15:07:26;35.60;99.90
48768;DHT22;34933;40.968;14.538;2022-08-21T15:10:12;36.10;99.90
48768;DHT22;34933;40.968;14.538;2022-08-21T15:12:56;35.80;99.60
48768;DHT22;34933;40.968;14.538;2022-08-21T15:15:43;36.00;99.20
48768;DHT22;34933;40.968;14.538;2022-08-21T15:18:29;36.00;98.10
48768;DHT22;34933;40.968;14.538;2022-08-21T15:21:14;35.30;97.90
48768;DHT22;34933;40.968;14.538;2022-08-21T15:23:59;35.00;98.50
48768;DHT22;34933;40.968;14.538;2022-08-21T15:26:44;35.00;97.60
48768;DHT22;34933;40.968;14.538;2022-08-21T15:29:30;34.50;97.90
48768;DHT22;34933;40.968;14.538;2022-08-21T15:32:24;34.20;99.40
48768;DHT22;34933;40.968;14.538;2022-08-21T15:35:10;33.90;99.30
48768;DHT22;34933;40.968;14.538;2022-08-21T15:37:54;33.30;99.90
48768;DHT22;34933;40.968;14.538;2022-08-21T15:40:41;33.20;99.50
48768;DHT22;34933;40.968;14.538;2022-08-21T15:43:52;33.70;99.00
48768;DHT22;34933;40.968;14.538;2022-08-21T15:46:36;34.10;98.70
48768;DHT22;34933;40.968;14.538;2022-08-21T15:49:22;35.20;97.40
48768;DHT22;34933;40.968;14.538;2022-08-21T15:52:06;35.60;96.60
48768;DHT22;34933;40.968;14.538;2022-08-21T15:54:52;35.50;97.60
48768;DHT22;34933;40.968;14.538;2022-08-21T15:57:37;35.50;97.00
48768;DHT22;34933;40.968;14.538;2022-08-21T16:00:34;35.60;97.10
48768;DHT22;34933;40.968;14.538;2022-08-21T16:03:19;35.80;97.20
48768;DHT22;34933;40.968;14.538;2022-08-21T16:06:06;35.80;97.40
48768;DHT22;34933;40.968;14.538;2022-08-21T16:08:50;35.90;97.80
48768;DHT22;34933;40.968;14.538;2022-08-21T16:11:35;34.80;98.00
48768;DHT22;34933;40.968;14.538;2022-08-21T16:14:19;33.80;99.20
48768;DHT22;34933;40.968;14.538;2022-08-21T16:17:06;32.90;99.90
48768;DHT22;34933;40.968;14.538;2022-08-21T16:19:51;32.80;99.90
48768;DHT22;34933;40.968;14.538;2022-08-21T16:22:36;33.70;99.90
48768;DHT22;34933;40.968;14.538;2022-08-21T16:25:21;34.60;99.90
48768;DHT22;34933;40.968;14.538;2022-08-21T16:28:08;35.20;97.80
48768;DHT22;34933;40.968;14.538;2022-08-21T16:30:54;35.20;97.80
48768;DHT22;34933;40.968;14.538;2022-08-21T16:33:47;35.60;97.00
48768;DHT22;34933;40.968;14.538;2022-08-21T16:36:32;36.00;96.50
48768;DHT22;34933;40.968;14.538;2022-08-21T16:39:17;35.00;97.10
48768;DHT22;34933;40.968;14.538;2022-08-21T16:42:02;33.80;98.50
48768;DHT22;34933;40.968;14.538;2022-08-21T16:44:47;32.50;99.60
48768;DHT22;34933;40.968;14.538;2022-08-21T16:47:32;31.90;99.90
48768;DHT22;34933;40.968;14.538;2022-08-21T16:50:21;32.10;99.90
48768;DHT22;34933;40.968;14.538;2022-08-21T16:53:06;32.70;99.90
48768;DHT22;34933;40.968;14.538;2022-08-21T16:55:51;33.60;99.50
48768;DHT22;34933;40.968;14.538;2022-08-21T16:58:39;33.50;99.80
48768;DHT22;34933;40.968;14.538;2022-08-21T17:01:28;33.80;99.90
48768;DHT22;34933;40.968;14.538;2022-08-21T17:04:14;33.00;99.90
48768;DHT22;34933;40.968;14.538;2022-08-21T17:06:59;32.40;99.90
48768;DHT22;34933;40.968;14.538;2022-08-21T17:09:44;32.20;99.90
48768;DHT22;34933;40.968;14.538;2022-08-21T17:12:28;31.60;99.90
48768;DHT22;34933;40.968;14.538;2022-08-21T17:15:19;31.20;99.90
48768;DHT22;34933;40.968;14.538;2022-08-21T17:18:08;30.70;99.90
48768;DHT22;34933;40.968;14.538;2022-08-21T17:20:53;30.10;99.90
48768;DHT22;34933;40.968;14.538;2022-08-21T17:23:38;29.90;99.90
48768;DHT22;34933;40.968;14.538;2022-08-21T17:26:23;29.70;99.90
48768;DHT22;34933;40.968;14.538;2022-08-21T17:29:09;29.30;99.90
48768;DHT22;34933;40.968;14.538;2022-08-21T17:31:56;28.70;99.90
48768;DHT22;34933;40.968;14.538;2022-08-21T17:34:40;28.50;99.90
48768;DHT22;34933;40.968;14.538;2022-08-21T17:37:25;28.30;99.90
48768;DHT22;34933;40.968;14.538;2022-08-21T17:40:12;28.10;99.90
48768;DHT22;34933;40.968;14.538;2022-08-21T17:42:58;27.90;99.90
48768;DHT22;34933;40.968;14.538;2022-08-21T17:45:44;27.50;99.90
48768;DHT22;34933;40.968;14.538;2022-08-21T17:48:29;27.30;99.90
48768;DHT22;34933;40.968;14.538;2022-08-21T17:51:14;27.00;99.90
48768;DHT22;34933;40.968;14.538;2022-08-21T17:53:59;26.80;99.90
48768;DHT22;34933;40.968;14.538;2022-08-21T17:56:44;26.60;99.90
48768;DHT22;34933;40.968;14.538;2022-08-21T17:59:29;26.30;99.90
48768;DHT22;34933;40.968;14.538;2022-08-21T18:02:15;26.20;99.90
48768;DHT22;34933;40.968;14.538;2022-08-21T18:05:00;26.10;99.90
48768;DHT22;34933;40.968;14.538;2022-08-21T18:07:44;26.10;99.90
48768;DHT22;34933;40.968;14.538;2022-08-21T18:10:29;26.00;99.90
48768;DHT22;34933;40.968;14.538;2022-08-21T18:13:19;25.80;99.90
48768;DHT22;34933;40.968;14.538;2022-08-21T18:16:06;25.80;99.90
48768;DHT22;34933;40.968;14.538;2022-08-21T18:18:50;25.80;99.90
48768;DHT22;34933;40.968;14.538;2022-08-21T18:21:36;25.80;99.90
48768;DHT22;34933;40.968;14.538;2022-08-21T18:24:22;25.70;99.90
48768;DHT22;34933;40.968;14.538;2022-08-21T18:27:08;25.80;99.90
48768;DHT22;34933;40.968;14.538;2022-08-21T18:29:57;25.70;99.90
48768;DHT22;34933;40.968;14.538;2022-08-21T18:32:43;25.60;99.90
48768;DHT22;34933;40.968;14.538;2022-08-21T18:35:28;25.60;99.90
48768;DHT22;34933;40.968;14.538;2022-08-21T18:38:14;25.50;99.90
48768;DHT22;34933;40.968;14.538;2022-08-21T18:40:58;25.50;99.90
48768;DHT22;34933;40.968;14.538;2022-08-21T18:43:43;25.40;99.90
48768;DHT22;34933;40.968;14.538;2022-08-21T18:46:28;25.30;99.90
48768;DHT22;34933;40.968;14.538;2022-08-21T18:49:13;25.30;99.90